Time;durP1;ratioP1;P1;durP2;ratioP2;P2;SDS_P1;SDS_P2;PMS_P1;PMS_P2;Temp;Humidity;BMP_temperature;BMP_pressure;BME280_temperature;BME280_humidity;BME280_pressure;Samples;Min_cycle;Max_cycle;Signal;HPM_P1;HPM_P2
2022/11/29 00:01:30;;;;;;;15.68;7.10;;;;;;;4.42;99.65;100875.59;6048118;28;20042;-70
2022/11/29 00:04:26;;;;;;;13.05;6.85;;;;;;;4.45;99.87;100888.50;6049463;28;20030;-70
2022/11/29 00:07:21;;;;;;;16.60;6.70;;;;;;;4.45;100.00;100888.50;6049491;28;20045;-70
2022/11/29 00:10:17;;;;;;;16.77;7.33;;;;;;;4.46;99.26;100884.91;6037731;28;20070;-70
2022/11/29 00:13:12;;;;;;;16.98;8.18;;;;;;;4.46;99.83;100887.53;6049510;28;20030;-71
2022/11/29 00:16:10;;;;;;;17.33;6.97;;;;;;;4.48;99.73;100883.91;6049683;28;20072;-71
2022/11/29 00:19:07;;;;;;;19.35;7.53;;;;;;;4.53;99.27;100887.06;6049168;28;20372;-70
2022/11/29 00:22:02;;;;;;;16.02;6.82;;;;;;;4.54;99.54;100888.72;6048830;28;20586;-72
2022/11/29 00:24:58;;;;;;;14.20;5.72;;;;;;;4.55;99.21;100874.66;6049616;28;20030;-70
2022/11/29 00:27:53;;;;;;;17.77;7.00;;;;;;;4.50;98.85;100870.66;6048915;28;20599;-71
2022/11/29 00:30:48;;;;;;;17.00;6.63;;;;;;;4.56;99.24;100886.84;6048567;28;20105;-71
2022/11/29 00:33:44;;;;;;;16.67;6.40;;;;;;;4.55;98.99;100889.56;6049487;28;20030;-71
2022/11/29 00:36:39;;;;;;;13.73;6.80;;;;;;;4.58;99.17;100898.09;6048729;28;20042;-70
2022/11/29 00:39:35;;;;;;;13.43;6.88;;;;;;;4.53;98.85;100880.94;6048567;28;20026;-71
2022/11/29 00:42:30;;;;;;;14.38;6.47;;;;;;;4.55;99.09;100886.94;6048816;28;20057;-71
2022/11/29 00:45:26;;;;;;;14.77;6.00;;;;;;;4.49;99.61;100875.06;6048937;28;20091;-70
2022/11/29 00:48:21;;;;;;;18.50;7.40;;;;;;;4.55;99.58;100895.66;6048967;28;20515;-71
2022/11/29 00:51:16;;;;;;;16.13;6.73;;;;;;;4.53;99.52;100881.78;6048122;28;20579;-71
2022/11/29 00:54:11;;;;;;;18.10;6.93;;;;;;;4.46;99.47;100875.25;6048906;28;20022;-71
2022/11/29 00:57:07;;;;;;;16.50;6.30;;;;;;;4.57;99.04;100885.88;6048990;28;20025;-70
2022/11/29 01:00:03;;;;;;;16.70;6.70;;;;;;;4.51;98.39;100877.59;6048057;28;20273;-70
2022/11/29 01:03:00;;;;;;;15.10;6.32;;;;;;;4.49;98.64;100869.81;6046391;28;20029;-71
2022/11/29 01:06:04;;;;;;;13.93;6.25;;;;;;;4.50;98.36;100891.66;6048358;28;20492;-71
2022/11/29 01:08:59;;;;;;;16.52;6.07;;;;;;;4.56;99.18;100891.25;6048155;28;20045;-71
2022/11/29 01:11:54;;;;;;;18.77;6.63;;;;;;;4.46;98.77;100880.50;6047180;28;20057;-70
2022/11/29 01:14:50;;;;;;;15.37;6.63;;;;;;;4.32;99.38;100862.22;6048149;28;20030;-70
2022/11/29 01:17:45;;;;;;;14.13;5.60;;;;;;;4.49;98.33;100875.06;6047957;28;20056;-71
2022/11/29 01:20:40;;;;;;;13.23;6.03;;;;;;;4.52;98.62;100880.09;6047037;28;20373;-70
2022/11/29 01:23:36;;;;;;;14.67;6.50;;;;;;;4.53;98.75;100883.56;6048119;28;20112;-70
2022/11/29 01:26:32;;;;;;;16.23;6.63;;;;;;;4.51;99.67;100888.91;6048106;28;20034;-71
2022/11/29 01:29:27;;;;;;;17.73;6.78;;;;;;;4.56;100.00;100899.97;6048027;28;20033;-70
2022/11/29 01:32:23;;;;;;;15.37;6.87;;;;;;;4.47;100.00;100897.97;6047665;28;20192;-71
2022/11/29 01:35:18;;;;;;;13.25;6.10;;;;;;;4.43;100.00;100891.22;6046359;28;20034;-71
2022/11/29 01:38:13;;;;;;;14.90;6.33;;;;;;;4.37;100.00;100891.66;6047453;28;20052;-71
2022/11/29 01:41:14;;;;;;;19.63;7.37;;;;;;;4.47;100.00;100903.22;6046861;28;20284;-72
2022/11/29 01:44:12;;;;;;;15.32;7.00;;;;;;;4.49;100.00;100903.94;6047858;28;20053;-70
2022/11/29 01:47:09;;;;;;;16.30;7.13;;;;;;;4.38;100.00;100901.19;6047573;28;20076;-71
2022/11/29 01:50:06;;;;;;;21.13;7.50;;;;;;;4.42;100.00;100889.56;6046709;28;20065;-72
2022/11/29 01:53:02;;;;;;;19.77;7.05;;;;;;;4.37;100.00;100902.16;6046248;28;20062;-71
2022/11/29 01:56:00;;;;;;;15.95;7.00;;;;;;;4.31;100.00;100906.94;6046199;28;20641;-71
2022/11/29 01:58:55;;;;;;;13.73;6.45;;;;;;;4.34;100.00;100907.59;6046229;28;20030;-71
2022/11/29 02:01:51;;;;;;;16.70;6.70;;;;;;;4.21;100.00;100890.97;6051258;28;20041;-71
2022/11/29 02:04:47;;;;;;;13.73;6.05;;;;;;;4.27;100.00;100914.19;6045449;28;20273;-70
2022/11/29 02:07:45;;;;;;;14.95;6.88;;;;;;;4.27;100.00;100908.94;6045824;28;20034;-70
2022/11/29 02:11:11;;;;;;;17.23;6.28;;;;;;;4.33;100.00;100910.31;6044856;28;20034;-71
2022/11/29 02:14:29;;;;;;;20.17;6.97;;;;;;;4.32;100.00;100909.47;6047319;28;20480;-71
2022/11/29 02:17:34;;;;;;;15.38;6.60;;;;;;;4.22;100.00;100903.16;6046588;28;20037;-71
2022/11/29 02:20:51;;;;;;;18.15;6.65;;;;;;;4.29;100.00;100925.44;6046350;28;20030;-70
2022/11/29 02:24:21;;;;;;;18.85;7.88;;;;;;;4.19;100.00;100913.84;6046757;28;20603;-72
2022/11/29 02:27:38;;;;;;;14.75;7.55;;;;;;;4.14;100.00;100906.28;6009695;28;20038;-70
2022/11/29 02:30:54;;;;;;;20.15;7.68;;;;;;;4.10;100.00;100915.28;6044894;28;20530;-70
2022/11/29 02:34:01;;;;;;;25.02;9.05;;;;;;;4.06;100.00;100911.19;6044949;28;20069;-70
2022/11/29 02:37:15;;;;;;;23.40;8.55;;;;;;;4.01;100.00;100912.44;6046167;28;20124;-70
2022/11/29 02:40:13;;;;;;;19.23;7.57;;;;;;;4.03;100.00;100919.25;6043284;28;20095;-70
2022/11/29 02:43:18;;;;;;;20.45;7.57;;;;;;;4.04;100.00;100914.84;6045249;28;20039;-70
2022/11/29 02:46:30;;;;;;;21.15;8.80;;;;;;;4.00;100.00;100913.34;6046435;28;20038;-70
2022/11/29 02:49:28;;;;;;;18.70;7.82;;;;;;;4.02;100.00;100927.25;6046073;28;20038;-71
2022/11/29 02:52:29;;;;;;;23.40;8.55;;;;;;;3.99;100.00;100927.44;6045253;28;20025;-71
2022/11/29 02:55:54;;;;;;;22.50;8.65;;;;;;;3.96;100.00;100923.22;6045666;28;20543;-71
2022/11/29 02:58:55;;;;;;;19.70;7.90;;;;;;;3.96;100.00;100928.47;6045834;28;20081;-72
2022/11/29 03:02:02;;;;;;;20.02;8.63;;;;;;;3.99;100.00;100927.44;6044655;28;20049;-70
2022/11/29 03:05:05;;;;;;;20.85;8.10;;;;;;;4.04;100.00;100941.09;6045038;28;20061;-70
2022/11/29 03:08:21;;;;;;;19.38;8.70;;;;;;;3.93;100.00;100922.56;6046257;28;20037;-70
2022/11/29 03:11:27;;;;;;;18.92;8.63;;;;;;;3.93;100.00;100933.06;6045375;28;20026;-71
2022/11/29 03:14:22;;;;;;;19.70;8.20;;;;;;;3.94;100.00;100950.50;6046446;28;20026;-70
2022/11/29 03:17:30;;;;;;;24.13;8.67;;;;;;;3.93;100.00;100947.03;6045649;28;20030;-70
2022/11/29 03:20:38;;;;;;;23.27;8.88;;;;;;;3.92;100.00;100947.09;6045364;28;20045;-71
2022/11/29 03:23:37;;;;;;;18.65;7.95;;;;;;;3.92;100.00;100952.34;6045848;28;20030;-70
2022/11/29 03:26:37;;;;;;;20.85;9.10;;;;;;;3.84;100.00;100955.47;6046426;28;20033;-70
2022/11/29 03:29:37;;;;;;;28.75;9.32;;;;;;;3.88;100.00;100956.97;6046073;28;20036;-70
2022/11/29 03:32:49;;;;;;;25.80;9.43;;;;;;;3.80;100.00;100951.38;6044050;28;20092;-70
2022/11/29 03:36:10;;;;;;;24.92;10.20;;;;;;;3.76;100.00;100946.41;6046897;28;20057;-69
2022/11/29 03:39:11;;;;;;;20.67;9.68;;;;;;;3.82;100.00;100956.50;6047980;28;20038;-70
2022/11/29 03:42:14;;;;;;;21.38;8.95;;;;;;;3.82;100.00;100957.34;6048167;28;20096;-70
2022/11/29 03:45:34;;;;;;;25.05;8.95;;;;;;;3.91;100.00;100971.69;6049316;28;20042;-70
2022/11/29 03:48:35;;;;;;;24.02;8.88;;;;;;;3.87;100.00;100967.53;6051222;28;20494;-71
2022/11/29 03:51:48;;;;;;;21.33;8.48;;;;;;;3.90;100.00;100964.72;6037079;28;20083;-70
2022/11/29 03:54:59;;;;;;;23.98;8.90;;;;;;;3.92;100.00;100970.72;6048966;28;20486;-70
2022/11/29 03:58:19;;;;;;;19.42;8.35;;;;;;;3.95;100.00;100970.53;6049155;28;20608;-70
2022/11/29 04:01:27;;;;;;;21.25;8.50;;;;;;;3.94;100.00;100971.50;6048074;28;20121;-70
2022/11/29 04:05:00;;;;;;;21.00;8.32;;;;;;;3.95;100.00;100981.88;6050020;28;20030;-71
2022/11/29 04:08:01;;;;;;;18.35;7.18;;;;;;;4.01;100.00;100975.38;6049897;28;20117;-70
2022/11/29 04:11:12;;;;;;;21.58;8.70;;;;;;;4.00;100.00;100976.31;6049363;28;20037;-71
2022/11/29 04:14:07;;;;;;;27.85;10.23;;;;;;;3.98;100.00;100978.19;6042685;28;20030;-71
2022/11/29 04:17:40;;;;;;;27.43;9.50;;;;;;;3.93;100.00;100982.91;6048953;28;20559;-70
2022/11/29 04:20:46;;;;;;;22.20;8.65;;;;;;;3.87;100.00;100970.16;6041890;28;20018;-71
2022/11/29 04:24:27;;;;;;;23.45;9.35;;;;;;;3.94;100.00;100976.72;6049630;28;20021;-70
2022/11/29 04:27:55;;;;;;;26.52;9.60;;;;;;;3.96;100.00;100995.84;6049449;28;20030;-70
2022/11/29 04:30:56;;;;;;;22.85;9.02;;;;;;;3.98;100.00;100988.69;6050554;28;20093;-70
2022/11/29 04:34:29;;;;;;;28.13;10.20;;;;;;;3.97;100.00;100992.25;6045535;28;20088;-71
2022/11/29 04:37:57;;;;;;;25.60;9.75;;;;;;;3.99;100.00;100985.16;6049676;28;20465;-70
2022/11/29 04:40:55;;;;;;;23.23;8.55;;;;;;;3.99;100.00;100998.25;6048650;28;20059;-70
2022/11/29 04:44:11;;;;;;;21.25;8.90;;;;;;;4.02;100.00;100998.06;6049219;28;20053;-70
2022/11/29 04:47:35;;;;;;;24.75;9.80;;;;;;;4.03;100.00;101004.97;6047262;28;20509;-70
2022/11/29 04:50:52;;;;;;;20.00;8.75;;;;;;;4.00;100.00;101007.81;6047311;28;20104;-70
2022/11/29 04:53:47;;;;;;;24.38;9.05;;;;;;;4.08;100.00;101000.28;6049218;28;20033;-71
2022/11/29 04:56:49;;;;;;;24.07;9.43;;;;;;;4.04;100.00;101004.06;6048762;28;20041;-70
2022/11/29 05:00:00;;;;;;;25.48;9.38;;;;;;;4.01;100.00;100996.38;6047527;28;20033;-71
2022/11/29 05:03:05;;;;;;;20.60;8.10;;;;;;;4.12;100.00;101007.03;6048429;28;20076;-70
2022/11/29 05:06:24;;;;;;;20.88;8.90;;;;;;;4.15;100.00;101017.34;6057158;28;20034;-71
2022/11/29 05:09:58;;;;;;;19.52;8.48;;;;;;;4.20;100.00;101020.50;6047327;28;20042;-71
2022/11/29 05:13:22;;;;;;;23.48;8.63;;;;;;;4.15;100.00;101019.97;6046257;28;20034;-71
2022/11/29 05:16:24;;;;;;;30.30;9.93;;;;;;;4.15;100.00;101033.09;6046719;28;20034;-71
2022/11/29 05:20:07;;;;;;;24.58;9.15;;;;;;;4.16;100.00;101022.47;6044976;28;20038;-70
2022/11/29 05:23:56;;;;;;;18.92;8.18;;;;;;;4.14;100.00;101032.25;6039421;28;20074;-70
2022/11/29 05:27:01;;;;;;;23.77;9.15;;;;;;;4.09;100.00;101022.97;5997644;28;20800;-71
2022/11/29 05:30:02;;;;;;;20.42;9.07;;;;;;;4.16;100.00;101029.50;6047678;28;20405;-70
2022/11/29 05:33:19;;;;;;;23.83;10.38;;;;;;;4.21;100.00;101043.19;6047522;28;20608;-72
2022/11/29 05:36:37;;;;;;;23.83;8.55;;;;;;;4.26;100.00;101042.91;6046604;28;20049;-71
2022/11/29 05:40:18;;;;;;;26.23;10.90;;;;;;;4.20;100.00;101044.97;6034040;28;20026;-71
2022/11/29 05:43:33;;;;;;;25.77;10.55;;;;;;;4.12;100.00;101039.38;6001415;28;20038;-72
2022/11/29 05:46:28;;;;;;;25.58;9.65;;;;;;;4.23;100.00;101057.06;6022347;28;20054;-71
2022/11/29 05:49:47;;;;;;;19.40;7.40;;;;;;;4.20;100.00;101049.38;6047830;28;20039;-71
2022/11/29 05:52:55;;;;;;;25.80;10.07;;;;;;;4.14;100.00;101049.75;6046042;28;20099;-71
2022/11/29 05:55:54;;;;;;;21.73;9.05;;;;;;;4.17;100.00;101067.94;6046077;28;20457;-72
2022/11/29 05:58:59;;;;;;;23.05;8.63;;;;;;;4.25;100.00;101060.41;6046996;28;20054;-72
2022/11/29 06:01:54;;;;;;;20.13;7.28;;;;;;;4.39;100.00;101073.50;6045077;28;20038;-72
2022/11/29 06:05:05;;;;;;;18.75;7.85;;;;;;;4.47;100.00;101071.25;6047541;28;20041;-72
2022/11/29 06:08:10;;;;;;;17.48;7.10;;;;;;;4.53;100.00;101072.63;6045928;28;20037;-72
2022/11/29 06:11:20;;;;;;;17.10;8.07;;;;;;;4.51;100.00;101077.97;6045729;28;20034;-72
2022/11/29 06:14:34;;;;;;;20.90;8.55;;;;;;;4.41;100.00;101079.50;6045263;28;20121;-72
2022/11/29 06:17:51;;;;;;;22.10;8.98;;;;;;;4.46;100.00;101085.28;6047195;28;20532;-72
2022/11/29 06:20:55;;;;;;;20.80;8.70;;;;;;;4.38;100.00;101092.81;6046141;28;20034;-71
2022/11/29 06:24:09;;;;;;;23.45;9.82;;;;;;;4.29;100.00;101071.56;6047218;28;20038;-72
2022/11/29 06:27:05;;;;;;;;;;;;;;;4.32;100.00;101095.00;6045935;28;20026;-72
2022/11/29 06:30:11;;;;;;;20.73;8.48;;;;;;;4.26;100.00;101080.50;6046770;28;19980;-72
2022/11/29 06:33:14;;;;;;;22.92;9.07;;;;;;;4.39;100.00;101086.66;6046651;28;20036;-72
2022/11/29 06:36:34;;;;;;;23.95;9.73;;;;;;;4.35;100.00;101085.13;6045966;28;20515;-72
2022/11/29 06:39:30;;;;;;;22.40;9.73;;;;;;;4.43;100.00;101080.25;6044849;28;20040;-72
2022/11/29 06:42:25;;;;;;;21.85;8.90;;;;;;;4.47;100.00;101102.75;6038118;28;20133;-72
2022/11/29 06:45:22;;;;;;;21.00;9.27;;;;;;;4.46;100.00;101101.06;6038375;28;20053;-72
2022/11/29 06:48:22;;;;;;;21.20;9.38;;;;;;;4.44;100.00;101102.09;6041248;28;20389;-72
2022/11/29 06:51:44;;;;;;;27.27;8.60;;;;;;;4.40;100.00;101104.09;6038481;28;20777;-72
2022/11/29 06:54:45;;;;;;;21.70;8.73;;;;;;;4.25;100.00;101106.81;6046357;28;20042;-72
2022/11/29 06:57:46;;;;;;;24.63;9.77;;;;;;;4.12;100.00;101106.75;6054303;28;20145;-72
2022/11/29 07:00:41;;;;;;;;;;;;;;;4.24;100.00;101121.72;6041538;28;20045;-72
2022/11/29 07:03:55;;;;;;;23.20;9.00;;;;;;;4.39;100.00;101117.28;6046201;28;20265;-72
2022/11/29 07:06:50;;;;;;;19.65;8.90;;;;;;;4.33;100.00;101110.66;6044098;28;20120;-72
2022/11/29 07:09:49;;;;;;;18.52;8.65;;;;;;;4.17;100.00;101105.53;6044970;28;20037;-72
2022/11/29 07:12:46;;;;;;;23.58;9.60;;;;;;;4.12;100.00;101106.75;6043823;28;20048;-71
2022/11/29 07:15:54;;;;;;;24.55;10.02;;;;;;;4.22;100.00;101123.59;6031735;28;20034;-72
2022/11/29 07:18:57;;;;;;;21.77;9.65;;;;;;;4.26;100.00;101130.34;6037091;28;20065;-72
2022/11/29 07:22:20;;;;;;;24.92;9.80;;;;;;;4.24;100.00;101126.97;6045346;28;20397;-72
2022/11/29 07:25:32;;;;;;;28.02;10.18;;;;;;;4.13;100.00;101130.25;6045275;28;20738;-71
2022/11/29 07:28:54;;;;;;;32.88;12.20;;;;;;;4.18;100.00;101149.19;6045741;28;20030;-71
2022/11/29 07:32:02;;;;;;;31.05;10.73;;;;;;;4.11;100.00;101141.78;6035243;28;20038;-72
2022/11/29 07:35:03;;;;;;;;;;;;;;;4.14;100.00;101146.84;6040330;28;20599;-71
2022/11/29 07:38:09;;;;;;;29.73;11.20;;;;;;;4.03;100.00;101144.03;6045088;28;19955;-71
2022/11/29 07:41:13;;;;;;;25.92;10.98;;;;;;;4.17;100.00;101162.41;6043703;28;20088;-72
2022/11/29 07:44:36;;;;;;;28.55;11.75;;;;;;;4.21;100.00;101161.31;6034439;28;20049;-72
2022/11/29 07:47:31;;;;;;;27.48;10.25;;;;;;;4.17;100.00;101147.50;6041644;28;20033;-71
2022/11/29 07:50:27;;;;;;;29.37;10.97;;;;;;;4.08;100.00;101147.22;6044767;28;20022;-71
2022/11/29 07:53:23;;;;;;;24.73;10.20;;;;;;;4.22;100.00;101160.34;6044596;28;20034;-71
2022/11/29 07:56:18;;;;;;;29.63;11.50;;;;;;;4.12;100.00;101159.22;6044427;28;20393;-71
2022/11/29 07:59:13;;;;;;;27.13;10.03;;;;;;;4.21;100.00;101169.16;6044860;28;20030;-71
2022/11/29 08:02:10;;;;;;;30.73;11.20;;;;;;;4.17;100.00;101163.25;6039562;28;20284;-71
2022/11/29 08:05:06;;;;;;;27.23;11.50;;;;;;;4.19;100.00;101173.66;6037106;28;20065;-70
2022/11/29 08:08:02;;;;;;;26.67;11.00;;;;;;;4.02;100.00;101169.44;6036537;28;20042;-71
2022/11/29 08:10:57;;;;;;;26.98;10.30;;;;;;;4.13;100.00;101171.44;6044171;28;20116;-72
2022/11/29 08:13:57;;;;;;;27.73;11.03;;;;;;;4.17;100.00;101181.63;6031761;28;20042;-72
2022/11/29 08:16:52;;;;;;;28.02;10.50;;;;;;;4.14;100.00;101175.72;6038379;28;20278;-70
2022/11/29 08:19:47;;;;;;;28.20;11.13;;;;;;;4.20;100.00;101170.09;6044105;28;20045;-71
2022/11/29 08:22:43;;;;;;;28.92;11.70;;;;;;;4.20;100.00;101185.84;6045277;28;20385;-70
2022/11/29 08:25:38;;;;;;;35.87;12.37;;;;;;;4.07;100.00;101182.28;6043558;28;20036;-70
2022/11/29 08:28:34;;;;;;;26.42;11.15;;;;;;;4.13;100.00;101168.81;6032476;28;20037;-70
2022/11/29 08:31:29;;;;;;;29.10;11.57;;;;;;;4.26;100.00;101177.59;6047382;28;20068;-71
2022/11/29 08:34:25;;;;;;;26.17;10.83;;;;;;;4.35;100.00;101176.19;6037542;28;20277;-71
2022/11/29 08:37:20;;;;;;;25.02;10.98;;;;;;;4.29;100.00;101187.06;6041852;28;20037;-71
2022/11/29 08:40:16;;;;;;;26.40;10.40;;;;;;;4.33;100.00;101188.53;6042945;28;20041;-71
2022/11/29 08:43:12;;;;;;;24.52;10.20;;;;;;;4.21;100.00;101187.53;6040972;28;20706;-69
2022/11/29 08:46:08;;;;;;;20.38;8.95;;;;;;;4.28;100.00;101186.22;6035728;28;20046;-71
2022/11/29 08:49:03;;;;;;;28.35;11.23;;;;;;;4.37;100.00;101206.66;6041690;28;20489;-71
2022/11/29 08:55:13;;;;;;;20.52;9.13;;;;;;;4.42;100.00;101204.59;6039869;28;20105;-72
2022/11/29 08:58:10;;;;;;;21.38;9.25;;;;;;;4.43;100.00;101200.19;6042980;28;20037;-71
2022/11/29 09:01:14;;;;;;;25.45;10.80;;;;;;;4.40;100.00;101200.38;6046485;28;20041;-71
2022/11/29 09:04:10;;;;;;;29.38;11.75;;;;;;;4.48;100.00;101214.72;6035478;28;20057;-71
2022/11/29 09:07:05;;;;;;;23.17;9.70;;;;;;;4.39;100.00;101217.91;6036800;28;20030;-71
2022/11/29 09:10:04;;;;;;;29.30;10.45;;;;;;;4.37;100.00;101216.31;6047975;28;20033;-71
2022/11/29 09:13:00;;;;;;;26.88;10.85;;;;;;;4.49;100.00;101221.66;6042791;28;20034;-71
2022/11/29 09:15:56;;;;;;;24.30;10.70;;;;;;;4.60;100.00;101224.44;6041501;28;20117;-71
2022/11/29 09:18:54;;;;;;;24.77;10.05;;;;;;;4.57;100.00;101208.88;6047768;28;20481;-71
2022/11/29 09:21:50;;;;;;;25.42;9.27;;;;;;;4.86;100.00;101229.84;6047567;28;20117;-71
2022/11/29 09:24:45;;;;;;;22.52;8.68;;;;;;;4.82;99.18;101219.53;6044831;28;20030;-70
2022/11/29 09:27:41;;;;;;;25.45;9.63;;;;;;;4.76;98.38;101235.69;6050604;28;20204;-71
2022/11/29 09:30:36;;;;;;;27.00;10.03;;;;;;;4.67;99.04;101219.66;6045699;28;20022;-70
2022/11/29 09:33:33;;;;;;;24.27;10.20;;;;;;;4.75;98.37;101234.00;6041223;28;20083;-71
2022/11/29 09:36:31;;;;;;;25.63;10.82;;;;;;;4.72;99.03;101230.72;6041533;28;20021;-71
2022/11/29 09:39:26;;;;;;;28.30;10.45;;;;;;;4.71;99.25;101236.91;6046246;28;20460;-71
2022/11/29 09:42:57;;;;;;;25.60;10.57;;;;;;;5.01;99.09;101247.25;6043518;28;20034;-71
2022/11/29 09:46:02;;;;;;;23.67;10.10;;;;;;;4.95;98.53;101245.88;5967211;29;20034;-72
2022/11/29 09:49:23;;;;;;;27.38;10.02;;;;;;;4.88;97.87;101243.72;6057032;28;20525;-71
2022/11/29 09:52:37;;;;;;;30.13;11.65;;;;;;;4.91;98.08;101259.31;6041149;28;20113;-70
2022/11/29 09:55:54;;;;;;;26.98;10.52;;;;;;;4.62;98.98;101254.06;6039700;28;20041;-70
2022/11/29 09:59:11;;;;;;;25.00;9.95;;;;;;;4.84;99.76;101263.28;6045477;28;20044;-71
2022/11/29 10:02:20;;;;;;;26.88;10.75;;;;;;;4.84;99.79;101261.47;6045136;28;20474;-71
2022/11/29 10:05:20;;;;;;;26.98;9.93;;;;;;;4.93;98.59;101260.06;6045413;28;20081;-71
2022/11/29 10:43:48;;;;;;;26.98;13.23;;;;;;;4.84;100.00;101255.41;6128649;27;20379;-73
2022/11/29 10:46:43;;;;;;;26.85;10.82;;;;;;;5.04;100.00;101261.06;6116899;28;20064;-74
2022/11/29 10:49:39;;;;;;;29.63;11.03;;;;;;;5.03;98.67;101269.06;6115702;28;20127;-73
2022/11/29 10:52:34;;;;;;;28.42;12.10;;;;;;;5.06;99.15;101268.84;6114982;28;20143;-72
2022/11/29 10:55:35;;;;;;;26.50;12.10;;;;;;;4.99;98.66;101244.75;6115560;28;20079;-72
2022/11/29 10:58:30;;;;;;;;;;;;;;;5.11;98.50;101256.28;6117165;28;20782;-74
2022/11/29 11:01:27;;;;;;;31.63;11.83;;;;;;;5.06;98.96;101263.59;6114461;28;19915;-72
2022/11/29 11:04:27;;;;;;;28.20;11.60;;;;;;;5.00;98.60;101259.56;6115883;28;20607;-73
2022/11/29 11:07:26;;;;;;;28.00;11.60;;;;;;;5.12;98.88;101258.78;6113717;28;20052;-73
2022/11/29 11:10:27;;;;;;;29.90;11.77;;;;;;;5.10;98.92;101265.09;6115016;28;20029;-72
2022/11/29 11:13:27;;;;;;;32.58;13.75;;;;;;;5.15;98.76;101269.13;6114626;28;20031;-73
2022/11/29 11:16:23;;;;;;;34.53;13.48;;;;;;;4.98;99.34;101261.44;6117342;28;20386;-74
2022/11/29 11:19:29;;;;;;;28.40;11.23;;;;;;;5.17;98.77;101269.84;6115975;28;20124;-72
2022/11/29 11:22:25;;;;;;;34.60;12.70;;;;;;;4.93;98.52;101257.41;6116293;28;20041;-73
2022/11/29 11:25:39;;;;;;;39.17;15.85;;;;;;;5.04;99.31;101262.84;6115987;28;20036;-73
2022/11/29 11:28:51;;;;;;;;;;;;;;;5.11;99.51;101272.06;6115703;28;20029;-73
2022/11/29 11:31:51;;;;;;;31.95;12.18;;;;;;;5.17;98.74;101264.59;6114194;28;20011;-73
2022/11/29 11:34:58;;;;;;;47.28;15.60;;;;;;;5.16;98.91;101264.72;6115600;28;20132;-73
2022/11/29 11:37:56;;;;;;;46.53;13.80;;;;;;;5.15;98.90;101276.16;6113824;28;20039;-72
2022/11/29 11:41:14;;;;;;;62.35;17.40;;;;;;;5.23;99.04;101263.34;6114653;28;20028;-72
2022/11/29 11:44:30;;;;;;;31.77;13.10;;;;;;;5.28;99.14;101277.06;6103141;28;20029;-74
2022/11/29 11:47:28;;;;;;;37.00;12.52;;;;;;;5.23;98.87;101282.63;6099662;28;20056;-73
2022/11/29 11:50:51;;;;;;;33.58;14.45;;;;;;;5.29;99.00;101282.22;6097283;28;20439;-73
2022/11/29 11:53:50;;;;;;;32.58;13.13;;;;;;;5.25;99.09;101285.97;6097614;28;20033;-73
2022/11/29 11:56:45;;;;;;;31.95;13.25;;;;;;;5.22;98.78;101273.03;6100112;28;20045;-72
2022/11/29 11:59:46;;;;;;;45.33;20.07;;;;;;;5.12;99.06;101284.22;6098076;28;20079;-72
2022/11/29 12:02:43;;;;;;;34.88;12.93;;;;;;;5.33;98.89;101282.84;6099206;28;20404;-72
2022/11/29 12:05:38;;;;;;;37.15;14.27;;;;;;;5.33;98.46;101298.63;6099898;28;20029;-72
2022/11/29 12:08:35;;;;;;;43.27;18.87;;;;;;;5.22;98.91;101301.09;6099514;28;20025;-72
2022/11/29 12:11:40;;;;;;;36.30;13.10;;;;;;;5.30;99.98;101293.56;6097767;28;20033;-74
2022/11/29 12:15:03;;;;;;;37.72;15.27;;;;;;;5.32;99.65;101292.56;6098451;28;20033;-73
2022/11/29 12:18:37;;;;;;;39.42;15.05;;;;;;;5.34;98.96;101297.69;6093897;28;20080;-72
2022/11/29 12:21:37;;;;;;;41.97;16.45;;;;;;;5.14;99.19;101288.44;6085025;28;20497;-73
2022/11/29 12:24:37;;;;;;;42.28;14.63;;;;;;;5.21;99.48;101284.50;6096009;28;20063;-72
2022/11/29 12:27:32;;;;;;;43.92;16.33;;;;;;;5.22;100.00;101301.09;6094507;28;20052;-72
2022/11/29 12:30:28;;;;;;;39.80;14.85;;;;;;;5.17;100.00;101308.44;6098154;28;20044;-73
2022/11/29 12:33:55;;;;;;;44.50;16.35;;;;;;;5.26;100.00;101307.88;6096808;28;20029;-72
2022/11/29 12:37:05;;;;;;;36.13;14.07;;;;;;;5.31;100.00;101308.41;6061618;28;20049;-72
2022/11/29 12:40:16;;;;;;;45.95;17.20;;;;;;;5.33;99.83;101304.75;6097429;28;20396;-72
2022/11/29 12:43:47;;;;;;;47.53;16.30;;;;;;;5.30;99.54;101315.44;6095702;28;20130;-71
2022/11/29 12:46:47;;;;;;;40.22;15.52;;;;;;;5.25;99.86;101306.16;6096682;28;20059;-74
2022/11/29 12:50:00;;;;;;;42.85;16.27;;;;;;;5.35;99.92;101309.91;6096871;28;20043;-71
2022/11/29 12:53:38;;;;;;;51.17;19.35;;;;;;;5.31;99.67;101311.88;6095859;28;20037;-72
2022/11/29 12:56:54;;;;;;;42.75;16.52;;;;;;;5.26;99.97;101307.88;6092650;28;20037;-73
2022/11/29 13:00:11;;;;;;;51.05;19.40;;;;;;;5.11;99.51;101303.59;6096342;28;20073;-72
2022/11/29 13:03:21;;;;;;;51.35;16.63;;;;;;;5.31;99.71;101321.56;6093593;28;20508;-72
2022/11/29 13:06:54;;;;;;;51.53;15.70;;;;;;;5.31;99.60;101321.56;6096618;28;20114;-73
2022/11/29 13:09:53;;;;;;;50.08;17.05;;;;;;;5.28;99.72;101332.25;6044571;28;20052;-72
2022/11/29 13:12:54;;;;;;;53.25;17.55;;;;;;;5.17;99.90;101319.78;6095782;28;20049;-73
2022/11/29 13:16:05;;;;;;;45.92;17.10;;;;;;;5.11;100.00;101314.09;6096143;28;20044;-74
2022/11/29 13:19:13;;;;;;;44.75;15.32;;;;;;;5.14;99.43;101322.63;6092447;28;20465;-72
2022/11/29 13:22:15;;;;;;;52.42;17.30;;;;;;;5.15;99.88;101331.34;6095571;28;20044;-73
2022/11/29 13:25:23;;;;;;;48.25;16.80;;;;;;;5.11;100.00;101335.13;6095942;28;20113;-73
2022/11/29 13:28:25;;;;;;;52.42;18.92;;;;;;;5.15;100.00;101332.19;6095855;28;20046;-72
2022/11/29 13:31:22;;;;;;;43.90;16.90;;;;;;;5.09;100.00;101323.84;6090818;28;20029;-73
2022/11/29 13:34:40;;;;;;;47.30;17.63;;;;;;;5.17;100.00;101329.47;6096731;28;20029;-74
2022/11/29 13:37:46;;;;;;;39.97;16.33;;;;;;;5.14;100.00;101330.50;6095120;28;20527;-72
2022/11/29 13:41:00;;;;;;;45.15;17.30;;;;;;;5.09;100.00;101329.09;6095661;28;20047;-73
2022/11/29 13:44:16;;;;;;;48.05;16.67;;;;;;;5.17;100.00;101334.72;6096081;28;20052;-73
2022/11/29 13:47:14;;;;;;;46.30;16.10;;;;;;;5.17;100.00;101329.47;6094743;28;20036;-74
2022/11/29 13:50:42;;;;;;;48.28;16.80;;;;;;;5.18;100.00;101346.94;6094048;28;20037;-72
2022/11/29 13:53:42;;;;;;;48.22;17.55;;;;;;;5.15;100.00;101336.59;6096015;28;20043;-73
2022/11/29 13:56:44;;;;;;;49.72;18.48;;;;;;;5.19;100.00;101353.91;6089822;28;20025;-72
2022/11/29 13:59:49;;;;;;;46.80;17.27;;;;;;;5.02;100.00;101340.94;6090265;28;20041;-73
2022/11/29 14:02:45;;;;;;;50.70;17.45;;;;;;;5.06;100.00;101352.94;6127269;28;20037;-72
2022/11/29 14:05:40;;;;;;;48.33;17.13;;;;;;;5.11;100.00;101356.97;6094347;28;20082;-73
2022/11/29 14:08:38;;;;;;;49.92;17.35;;;;;;;5.17;100.00;101355.75;6096440;28;20477;-73
2022/11/29 14:11:57;;;;;;;48.10;16.42;;;;;;;5.20;100.00;101353.78;6094194;28;20021;-72
2022/11/29 14:14:57;;;;;;;51.20;16.08;;;;;;;5.29;100.00;101365.50;6091619;28;20489;-72
2022/11/29 14:17:55;;;;;;;52.83;16.52;;;;;;;5.03;100.00;101359.25;6096695;28;20072;-72
2022/11/29 14:20:55;;;;;;;53.95;18.90;;;;;;;5.00;100.00;101369.94;6095851;28;20045;-70
2022/11/29 14:23:50;;;;;;;49.78;17.77;;;;;;;5.03;100.00;101364.50;6095293;28;20481;-72
2022/11/29 14:26:45;;;;;;;56.77;20.10;;;;;;;4.94;100.00;101375.59;6096314;28;20075;-72
2022/11/29 14:29:51;;;;;;;53.53;19.50;;;;;;;4.97;100.00;101377.19;6096043;28;20029;-72
2022/11/29 14:33:02;;;;;;;50.80;18.15;;;;;;;4.91;100.00;101381.03;6095551;28;20095;-73
2022/11/29 14:36:19;;;;;;;50.97;18.70;;;;;;;4.95;100.00;101382.50;6110624;28;20044;-74
2022/11/29 14:39:43;;;;;;;52.13;17.98;;;;;;;5.00;100.00;101382.25;6094819;28;20032;-71
2022/11/29 14:42:47;;;;;;;55.05;18.17;;;;;;;4.89;100.00;101374.19;6093564;28;20538;-74
2022/11/29 14:45:43;;;;;;;53.35;18.45;;;;;;;4.84;100.00;101369.19;6095096;28;20025;-73
2022/11/29 14:48:41;;;;;;;48.70;18.27;;;;;;;4.89;100.00;101387.31;6095188;28;20037;-74